Green Village, New Jersey
Current Conditions -  °F | °C
As of 5:45 PM on Sunday 23 Nov 2014 (Local Time) from KMMU Reporting Station
Clear Clear  
Wind Chill: 45°   Ceiling: Unl
Heat Index: 45°   Visibility: 10mi
Dew Point: 27°   Wind: 0mph
Humidity: 49%   Direction: NA
Pressure: 30.13"   Gusts: NA
Location:  40.74°N, 74.45°W
Report Text: KMMU 232245Z 00000KT 10SM SKC 07/M03 A3013
Loading
Personal Weather Stations






























Interactive Weather Map New forecast layout! Learn more

10-Day Weather Forecast

Advertisements
Track Severe Weather on mobile